^^
Datos históricos de la estación: Murcia-Puente Tocinos
Diario Informe para Diciembre 15, 2019 Unidades:  Métrico    Ingés   Ambas
Diario Semanal Mensual Anual
  Máxima: Mínima: Promedio:
Temperatura: 17.9 °C 10.9 °C 13.2 °C
Punto de rocio: 9.4 °C 4.8 °C 6.1 °C
Humedad: 82% 42.6% 63%
Velocidad viento: 14km/h 3.2km/h 9.6km/h
Racha viento: 25.9km/h - -
Viento- - SSO
Presión: 1016.8 hPa 1011.3 hPa -
Precipitación: 0.0 mm    
 
 
Tabla de datos para Diciembre 15, 2019
Hora Temperatura Punto de rocio Presión Viento Velocidad viento Racha viento Humedad Intensidad lluvia(por hora) Nubes
00:04 12.8 °C 6 °C 1016.7 hPa SSO 10 km/h 18.5 km/h 63.1% 0.0 mm
00:09 12.7 °C 6.1 °C 1016.8 hPa SSO 10.3 km/h 19.3 km/h 64% 0.0 mm
00:14 12.7 °C 6 °C 1016.8 hPa Sur 10.1 km/h 16.1 km/h 64% 0.0 mm
00:19 12.5 °C 5.9 °C 1016.8 hPa SSO 10 km/h 14.8 km/h 64.3% 0.0 mm
00:24 12.3 °C 5.9 °C 1016.8 hPa Sur 10 km/h 18.5 km/h 65% 0.0 mm
00:29 12.2 °C 5.9 °C 1016.7 hPa Sur 10 km/h 19.3 km/h 65.4% 0.0 mm
00:34 12.1 °C 5.9 °C 1016.7 hPa Sur 10 km/h 14.8 km/h 66% 0.0 mm
00:39 12 °C 5.8 °C 1016.7 hPa Sur 10 km/h 17.2 km/h 66% 0.0 mm
00:44 11.9 °C 5.8 °C 1016.7 hPa Sur 10.2 km/h 17.7 km/h 66.2% 0.0 mm
00:49 11.8 °C 5.9 °C 1016.7 hPa Sur 10.3 km/h 16.7 km/h 67% 0.0 mm
00:54 11.8 °C 5.9 °C 1016.7 hPa Sur 10.3 km/h 16.7 km/h 67% 0.0 mm
00:59 11.8 °C 5.9 °C 1016.6 hPa Sur 10.3 km/h 19 km/h 67% 0.0 mm
01:04 11.8 °C 5.8 °C 1016.6 hPa Sur 10.3 km/h 19.3 km/h 66.7% 0.0 mm
01:09 11.9 °C 5.7 °C 1016.6 hPa SSO 10.3 km/h 19.8 km/h 66% 0.0 mm
01:14 12 °C 5.8 °C 1016.5 hPa SSO 11.3 km/h 19.3 km/h 66% 0.0 mm
01:19 11.9 °C 5.7 °C 1016.5 hPa SSO 11.9 km/h 16.7 km/h 66% 0.0 mm
01:24 11.9 °C 5.7 °C 1016.5 hPa SSO 10.9 km/h 16.7 km/h 66% 0.0 mm
01:29 11.9 °C 5.7 °C 1016.3 hPa SSO 10.3 km/h 16.7 km/h 65.8% 0.0 mm
01:34 12 °C 5.6 °C 1016.3 hPa SSO 10.3 km/h 16.1 km/h 65% 0.0 mm
01:39 12.1 °C 5.7 °C 1016.3 hPa SSO 10.3 km/h 16.7 km/h 65% 0.0 mm
01:44 12.1 °C 5.7 °C 1016.1 hPa SSO 10.3 km/h 16.7 km/h 65% 0.0 mm
01:49 12.1 °C 5.7 °C 1016.1 hPa SSO 10.3 km/h 19 km/h 65% 0.0 mm
01:54 12.1 °C 5.7 °C 1016.1 hPa Sur 10.8 km/h 19.3 km/h 65% 0.0 mm
01:59 11.9 °C 5.5 °C 1016.0 hPa Sur 11.1 km/h 17.7 km/h 65% 0.0 mm
02:04 11.7 °C 5.6 °C 1016.0 hPa SSO 10.1 km/h 16.1 km/h 66% 0.0 mm
02:09 11.7 °C 5.6 °C 1016.0 hPa SSO 9.5 km/h 20.4 km/h 66% 0.0 mm
02:14 11.7 °C 5.6 °C 1015.9 hPa SSO 10.5 km/h 20.9 km/h 66% 0.0 mm
02:19 11.7 °C 5.5 °C 1015.9 hPa SSO 11.1 km/h 22 km/h 66% 0.0 mm
02:24 11.6 °C 5.4 °C 1016.0 hPa SSO 12.2 km/h 22.5 km/h 66% 0.0 mm
02:29 11.5 °C 5.4 °C 1016.0 hPa Sur 13 km/h 19.3 km/h 66.3% 0.0 mm
02:34 11.3 °C 5.4 °C 1016.0 hPa SSO 11.9 km/h 18.5 km/h 67% 0.0 mm
02:39 11.3 °C 5.4 °C 1016.1 hPa SSO 11.1 km/h 19.3 km/h 67% 0.0 mm
02:44 11.3 °C 5.4 °C 1016.1 hPa Sur 11.1 km/h 18.5 km/h 67% 0.0 mm
02:49 11.3 °C 5.4 °C 1016.1 hPa Sur 11.1 km/h 24.1 km/h 66.9% 0.0 mm
02:54 11.4 °C 5.3 °C 1016.1 hPa SSO 11.6 km/h 24.1 km/h 66% 0.0 mm
02:59 11.6 °C 5.4 °C 1015.9 hPa SSO 11.9 km/h 19.3 km/h 66% 0.0 mm
03:04 11.6 °C 5.3 °C 1015.9 hPa SSO 11.9 km/h 18.3 km/h 65.2% 0.0 mm
03:09 11.6 °C 5.2 °C 1015.9 hPa SSO 11.9 km/h 17.7 km/h 65% 0.0 mm
03:14 11.6 °C 5.2 °C 1015.8 hPa SSO 10.4 km/h 17.7 km/h 65% 0.0 mm
03:19 11.6 °C 5.2 °C 1015.8 hPa SSO 9.5 km/h 18.5 km/h 65% 0.0 mm
03:24 11.5 °C 5.3 °C 1015.9 hPa SSO 10.9 km/h 19.3 km/h 65.6% 0.0 mm
03:29 11.5 °C 5.3 °C 1015.9 hPa SSO 11.9 km/h 19.8 km/h 65.4% 0.0 mm
03:34 11.5 °C 5.2 °C 1015.9 hPa SSO 12.1 km/h 20.9 km/h 65.1% 0.0 mm
03:39 11.5 °C 5.2 °C 1015.9 hPa SSO 12.2 km/h 20.9 km/h 65% 0.0 mm
03:44 11.5 °C 5.2 °C 1015.8 hPa SSO 11.6 km/h 20.4 km/h 65% 0.0 mm
03:49 11.5 °C 5.2 °C 1015.8 hPa SSO 11.1 km/h 20.9 km/h 65% 0.0 mm
03:54 11.4 °C 5.1 °C 1015.8 hPa SSO 10.6 km/h 19.3 km/h 65.1% 0.0 mm
03:59 11.4 °C 5.3 °C 1015.6 hPa SO 10.3 km/h 16.7 km/h 66% 0.0 mm
04:04 11.4 °C 5.3 °C 1015.6 hPa SSO 9.8 km/h 20.1 km/h 66% 0.0 mm
04:09 11.3 °C 5.2 °C 1015.7 hPa SSO 9.5 km/h 20.9 km/h 66% 0.0 mm
04:14 11.3 °C 5.2 °C 1015.7 hPa SSO 11.6 km/h 22.2 km/h 66% 0.0 mm
04:19 11.3 °C 5.2 °C 1015.7 hPa SO 13 km/h 22.5 km/h 66% 0.0 mm
04:24 11.3 °C 5.2 °C 1015.7 hPa SO 13 km/h 22.5 km/h 66% 0.0 mm
04:29 11.3 °C 5.2 °C 1015.6 hPa SO 13 km/h 20.9 km/h 66% 0.0 mm
04:34 11.3 °C 5.2 °C 1015.6 hPa SSO 13.4 km/h 22.2 km/h 66% 0.0 mm
04:39 11.3 °C 5.2 °C 1015.6 hPa SSO 13.7 km/h 24.1 km/h 66% 0.0 mm
04:44 11.4 °C 5.1 °C 1015.5 hPa SSO 13.9 km/h 24.1 km/h 65.1% 0.0 mm
04:49 11.4 °C 5.1 °C 1015.5 hPa SO 14 km/h 24.1 km/h 65.2% 0.0 mm
04:54 11.3 °C 5.1 °C 1015.5 hPa SSO 12.9 km/h 25.9 km/h 66% 0.0 mm
04:59 11.2 °C 5.1 °C 1015.3 hPa SSO 12.2 km/h 25.7 km/h 66% 0.0 mm
05:04 11.2 °C 5.1 °C 1015.3 hPa SSO 11.5 km/h 22.2 km/h 66% 0.0 mm
05:09 11.2 °C 5 °C 1015.3 hPa SSO 11.1 km/h 22.5 km/h 66% 0.0 mm
05:14 11.2 °C 5.1 °C 1015.2 hPa SSO 11.8 km/h 19.3 km/h 66% 0.0 mm
05:19 11.2 °C 5.1 °C 1015.2 hPa SSO 12.2 km/h 20.9 km/h 66% 0.0 mm
05:24 11.2 °C 5.1 °C 1015.2 hPa SSO 12 km/h 20.9 km/h 66% 0.0 mm
05:29 11.2 °C 5.1 °C 1015.2 hPa SSO 11.9 km/h 20.9 km/h 66% 0.0 mm
05:34 11.2 °C 5.1 °C 1015.2 hPa SSO 11.9 km/h 19.3 km/h 66% 0.0 mm
05:39 11.2 °C 5.1 °C 1015.2 hPa SSO 11.9 km/h 20.4 km/h 66% 0.0 mm
05:44 11.2 °C 5 °C 1015.2 hPa SSO 12.1 km/h 20.9 km/h 66% 0.0 mm
05:49 11.1 °C 5 °C 1015.2 hPa SSO 12.2 km/h 20.9 km/h 66% 0.0 mm
05:54 11.1 °C 5 °C 1015.2 hPa SSO 11.6 km/h 20.9 km/h 66% 0.0 mm
05:59 11 °C 5 °C 1015.0 hPa SSO 11.1 km/h 18.5 km/h 66.7% 0.0 mm
06:04 10.9 °C 5 °C 1015.0 hPa SSO 11.6 km/h 20.4 km/h 67% 0.0 mm
06:09 10.9 °C 5 °C 1015.0 hPa SSO 11.9 km/h 22.2 km/h 67% 0.0 mm
06:14 10.9 °C 5 °C 1015.0 hPa SSO 12.1 km/h 22.5 km/h 67% 0.0 mm
06:19 10.9 °C 5 °C 1015.0 hPa SSO 12.2 km/h 22.2 km/h 67% 0.0 mm
06:24 11 °C 4.9 °C 1015.0 hPa SSO 13.1 km/h 22.5 km/h 66.2% 0.0 mm
06:29 11 °C 4.9 °C 1015.0 hPa SSO 13.7 km/h 20.9 km/h 66% 0.0 mm
06:34 10.9 °C 4.8 °C 1015.0 hPa SSO 12.8 km/h 20.4 km/h 66% 0.0 mm
06:39 10.9 °C 4.8 °C 1015.0 hPa SSO 12.2 km/h 20.9 km/h 66% 0.0 mm
06:44 10.9 °C 4.9 °C 1015.0 hPa SSO 12.2 km/h 20.9 km/h 66.3% 0.0 mm
06:49 10.9 °C 4.9 °C 1015.0 hPa SSO 12.2 km/h 22.5 km/h 66.7% 0.0 mm
06:54 11 °C 4.9 °C 1015.0 hPa SSO 13.1 km/h 24.1 km/h 66% 0.0 mm
06:59 11 °C 4.9 °C 1014.9 hPa SSO 13.7 km/h 24.1 km/h 66% 0.0 mm
07:04 11 °C 4.9 °C 1014.9 hPa SSO 13.3 km/h 22.5 km/h 66% 0.0 mm
07:09 11 °C 4.9 °C 1014.9 hPa SSO 13 km/h 20.9 km/h 66% 0.0 mm
07:14 11.1 °C 4.9 °C 1014.9 hPa SSO 12.4 km/h 19.3 km/h 66% 0.0 mm
07:19 11 °C 4.9 °C 1014.9 hPa SSO 11.9 km/h 21.7 km/h 66% 0.0 mm
07:24 11.1 °C 4.9 °C 1015.0 hPa SSO 12.6 km/h 22.5 km/h 66% 0.0 mm
07:29 11.1 °C 5 °C 1015.0 hPa SSO 13 km/h 20.9 km/h 66% 0.0 mm
07:34 11.1 °C 5 °C 1015.0 hPa SSO 12.6 km/h 19.3 km/h 66% 0.0 mm
07:39 11.1 °C 5 °C 1015.1 hPa SSO 12.2 km/h 22.5 km/h 66% 0.0 mm
07:44 11.1 °C 5 °C 1015.1 hPa SSO 12 km/h 22.5 km/h 66% 0.0 mm
07:49 11.1 °C 5 °C 1015.1 hPa SSO 11.9 km/h 19.3 km/h 66% 0.0 mm
07:54 11 °C 4.9 °C 1015.1 hPa SSO 10.9 km/h 16.7 km/h 66% 0.0 mm
07:59 10.9 °C 4.8 °C 1015.1 hPa SSO 10.3 km/h 16.7 km/h 66% 0.0 mm
08:04 10.9 °C 4.8 °C 1015.1 hPa SSO 10.3 km/h 23.3 km/h 66% 0.0 mm
08:09 11 °C 4.8 °C 1015.2 hPa SSO 10.3 km/h 24.1 km/h 66% 0.0 mm
08:14 10.9 °C 4.8 °C 1015.2 hPa SSO 12.3 km/h 22.2 km/h 66% 0.0 mm
08:19 11 °C 4.9 °C 1015.2 hPa SSO 13.7 km/h 22.5 km/h 66% 0.0 mm
08:24 11 °C 4.9 °C 1015.3 hPa SO 13.3 km/h 20.9 km/h 66% 0.0 mm
08:29 11 °C 4.9 °C 1015.3 hPa SO 13 km/h 20.4 km/h 66% 0.0 mm
08:34 11.1 °C 5 °C 1015.3 hPa SO 11.9 km/h 21.7 km/h 66% 0.0 mm
08:39 11.1 °C 4.9 °C 1015.3 hPa SO 11.1 km/h 20.9 km/h 65.4% 0.0 mm
08:44 11.2 °C 4.8 °C 1015.3 hPa SO 11.8 km/h 20.4 km/h 65% 0.0 mm
08:49 11.2 °C 4.8 °C 1015.3 hPa SSO 12.2 km/h 20.9 km/h 65% 0.0 mm
08:54 11.2 °C 4.8 °C 1015.3 hPa SSO 11.6 km/h 22.5 km/h 65% 0.0 mm
08:59 11.2 °C 4.8 °C 1015.3 hPa SSO 11.1 km/h 22.5 km/h 65% 0.0 mm
09:04 11.1 °C 4.8 °C 1015.3 hPa SSO 11.8 km/h 20.9 km/h 65% 0.0 mm
09:09 11.1 °C 4.8 °C 1015.5 hPa SO 12.2 km/h 20.9 km/h 65% 0.0 mm
09:14 11.1 °C 4.9 °C 1015.5 hPa SO 11.6 km/h 20.1 km/h 65.6% 0.0 mm
09:19 11.2 °C 4.8 °C 1015.5 hPa SSO 11.1 km/h 22.2 km/h 65% 0.0 mm
09:24 11.3 °C 4.9 °C 1015.5 hPa SO 11.8 km/h 22.5 km/h 64.9% 0.0 mm
09:29 11.4 °C 4.9 °C 1015.5 hPa SSO 12.2 km/h 20.9 km/h 64% 0.0 mm
09:34 11.5 °C 5 °C 1015.5 hPa SSO 12 km/h 20.9 km/h 64% 0.0 mm
09:39 11.7 °C 5 °C 1015.7 hPa SSO 11.9 km/h 23.3 km/h 63.8% 0.0 mm
09:44 11.8 °C 5 °C 1015.7 hPa SSO 12.6 km/h 24.1 km/h 63.3% 0.0 mm
09:49 11.9 °C 5.1 °C 1015.7 hPa SSO 13 km/h 24.1 km/h 63% 0.0 mm
09:54 12.1 °C 5.2 °C 1015.8 hPa SO 13.4 km/h 24.1 km/h 63% 0.0 mm
09:59 12.2 °C 5.3 °C 1015.8 hPa SSO 13.7 km/h 24.1 km/h 62.8% 0.0 mm
10:04 12.2 °C 5.3 °C 1015.8 hPa SSO 12.6 km/h 22.5 km/h 63% 0.0 mm
10:09 12.3 °C 5.3 °C 1015.9 hPa SSO 11.9 km/h 24.1 km/h 62.6% 0.0 mm
10:14 12.3 °C 5.2 °C 1015.9 hPa SSO 12.1 km/h 24.1 km/h 62% 0.0 mm
10:19 12.4 °C 5.3 °C 1015.9 hPa SSO 12.2 km/h 20.9 km/h 62% 0.0 mm
10:24 12.5 °C 5.4 °C 1016.0 hPa SSO 11.6 km/h 22.2 km/h 62% 0.0 mm
10:29 12.7 °C 5.6 °C 1016.0 hPa SSO 11.1 km/h 22.5 km/h 62% 0.0 mm
10:34 12.8 °C 5.5 °C 1016.0 hPa SSO 12.6 km/h 22.2 km/h 61.1% 0.0 mm
10:39 12.9 °C 5.7 °C 1016.1 hPa SSO 13.7 km/h 22.5 km/h 61.2% 0.0 mm
10:44 13.1 °C 5.7 °C 1016.1 hPa SSO 13.3 km/h 22.2 km/h 61% 0.0 mm
10:49 13.2 °C 5.8 °C 1016.1 hPa SSO 13 km/h 22.5 km/h 60.9% 0.0 mm
10:54 13.3 °C 5.8 °C 1016.1 hPa SSO 12.4 km/h 19.3 km/h 60.7% 0.0 mm
10:59 13.4 °C 5.8 °C 1016.1 hPa SSO 11.9 km/h 22.2 km/h 60.1% 0.0 mm
11:04 13.4 °C 5.8 °C 1016.1 hPa SSO 12.1 km/h 22.5 km/h 60% 0.0 mm
11:09 13.4 °C 5.8 °C 1016.1 hPa SSO 12.2 km/h 22.5 km/h 60% 0.0 mm
11:14 13.5 °C 5.8 °C 1016.0 hPa SSO 12 km/h 22.5 km/h 59.7% 0.0 mm
11:19 13.5 °C 5.8 °C 1016.0 hPa SSO 11.9 km/h 22.5 km/h 60% 0.0 mm
11:24 13.6 °C 6 °C 1016.0 hPa SSO 11.4 km/h 17.7 km/h 60% 0.0 mm
11:29 13.6 °C 6 °C 1015.9 hPa SSO 11.1 km/h 20.4 km/h 60% 0.0 mm
11:34 13.7 °C 6 °C 1015.9 hPa SSO 10.4 km/h 20.9 km/h 59.9% 0.0 mm
11:39 13.8 °C 6 °C 1015.9 hPa SSO 10 km/h 20.9 km/h 59.2% 0.0 mm
11:44 13.9 °C 5.9 °C 1015.7 hPa SSO 10.2 km/h 20.9 km/h 58.4% 0.0 mm
11:49 14.1 °C 5.9 °C 1015.7 hPa SSO 10.3 km/h 19 km/h 57.6% 0.0 mm
11:54 14.2 °C 5.7 °C 1015.7 hPa SSO 11.3 km/h 19.3 km/h 57% 0.0 mm
11:59 14.3 °C 5.8 °C 1015.6 hPa SSO 11.9 km/h 16.1 km/h 56.9% 0.0 mm
12:04 14.6 °C 5.8 °C 1015.6 hPa SSO 9.2 km/h 16.7 km/h 55.8% 0.0 mm
12:09 14.7 °C 5.7 °C 1015.6 hPa SSO 7.6 km/h 17.2 km/h 55% 0.0 mm
12:14 14.7 °C 5.7 °C 1015.2 hPa SSO 9.2 km/h 17.7 km/h 55% 0.0 mm
12:19 14.7 °C 5.8 °C 1015.2 hPa SSO 10.3 km/h 16.1 km/h 55% 0.0 mm
12:24 14.9 °C 5.9 °C 1015.2 hPa Sur 9.8 km/h 16.1 km/h 54.8% 0.0 mm
12:29 15.2 °C 5.9 °C 1015.0 hPa Sur 9.5 km/h 19 km/h 53.9% 0.0 mm
12:34 15.2 °C 5.9 °C 1015.0 hPa SO 10 km/h 19.3 km/h 53.8% 0.0 mm
12:39 15.2 °C 5.8 °C 1015.0 hPa SO 10.3 km/h 19.8 km/h 53.3% 0.0 mm
12:44 15.3 °C 5.8 °C 1014.7 hPa SSO 10.3 km/h 20.9 km/h 53% 0.0 mm
12:49 15.4 °C 5.9 °C 1014.7 hPa Sur 10.3 km/h 20.9 km/h 53% 0.0 mm
12:54 15.6 °C 5.8 °C 1014.7 hPa SSO 10.8 km/h 22.5 km/h 52.1% 0.0 mm
12:59 15.4 °C 5.7 °C 1014.5 hPa SSO 11.1 km/h 22.5 km/h 52.3% 0.0 mm
13:04 15.6 °C 5.8 °C 1014.5 hPa Sur 12.3 km/h 19.3 km/h 52% 0.0 mm
13:09 15.8 °C 5.9 °C 1014.5 hPa SSO 13 km/h 19.3 km/h 51.9% 0.0 mm
13:14 15.8 °C 5.8 °C 1014.4 hPa SSO 11.9 km/h 20.4 km/h 51.5% 0.0 mm
13:19 15.8 °C 5.9 °C 1014.4 hPa Sur 11.1 km/h 20.9 km/h 51.5% 0.0 mm
13:24 15.9 °C 5.8 °C 1014.4 hPa SSO 11.6 km/h 17.2 km/h 51.1% 0.0 mm
13:29 16 °C 5.8 °C 1014.2 hPa Sur 11.9 km/h 17.7 km/h 51% 0.0 mm
13:34 16.1 °C 5.8 °C 1014.2 hPa Sur 11.4 km/h 16.7 km/h 50.8% 0.0 mm
13:39 16.3 °C 6 °C 1014.2 hPa SSO 11.1 km/h 16.1 km/h 50.5% 0.0 mm
13:44 16.3 °C 5.9 °C 1013.9 hPa Sur 10.4 km/h 19 km/h 50% 0.0 mm
13:49 16.5 °C 5.9 °C 1013.9 hPa SSO 10 km/h 20.4 km/h 49.5% 0.0 mm
13:54 16.6 °C 5.9 °C 1013.9 hPa SSO 10.2 km/h 20.9 km/h 49.3% 0.0 mm
13:59 16.6 °C 5.8 °C 1013.6 hPa Sur 10.3 km/h 19.3 km/h 49.1% 0.0 mm
14:04 16.6 °C 5.8 °C 1013.6 hPa Sur 11.3 km/h 20.4 km/h 49% 0.0 mm
14:09 16.6 °C 5.9 °C 1013.6 hPa SSO 11.9 km/h 20.9 km/h 49% 0.0 mm
14:14 16.7 °C 5.7 °C 1013.5 hPa SSE 11.4 km/h 20.1 km/h 48.3% 0.0 mm
14:19 16.8 °C 5.7 °C 1013.5 hPa Sur 11.1 km/h 20.9 km/h 48% 0.0 mm
14:24 16.8 °C 5.7 °C 1013.5 hPa Sur 11.6 km/h 19.3 km/h 48% 0.0 mm
14:29 16.8 °C 5.6 °C 1013.3 hPa Sur 11.9 km/h 17.7 km/h 47.7% 0.0 mm
14:34 16.7 °C 5.7 °C 1013.3 hPa SSO 10.9 km/h 18.5 km/h 48% 0.0 mm
14:39 16.8 °C 5.7 °C 1013.3 hPa SSO 10.3 km/h 19.3 km/h 48% 0.0 mm
14:44 16.9 °C 5.7 °C 1013.0 hPa Sur 10.1 km/h 16.1 km/h 47.7% 0.0 mm
14:49 17.1 °C 5.7 °C 1013.0 hPa SSE 10 km/h 14.8 km/h 47% 0.0 mm
14:54 17.2 °C 5.6 °C 1013.0 hPa SSO 9 km/h 14.5 km/h 46.5% 0.0 mm
14:59 17.2 °C 5.7 °C 1012.7 hPa SSO 8.4 km/h 15.6 km/h 46.8% 0.0 mm
15:04 17.2 °C 5.7 °C 1012.7 hPa SSE 9.1 km/h 16.1 km/h 46.7% 0.0 mm
15:09 17.2 °C 5.5 °C 1012.7 hPa SSE 9.5 km/h 17.2 km/h 46.2% 0.0 mm
15:14 17.3 °C 5.6 °C 1012.6 hPa Sur 9.5 km/h 17.7 km/h 46% 0.0 mm
15:19 17.4 °C 5.7 °C 1012.6 hPa Sur 9.5 km/h 16.1 km/h 46% 0.0 mm
15:24 17.4 °C 5.6 °C 1012.6 hPa SSE 9 km/h 16.7 km/h 45.6% 0.0 mm
15:29 17.6 °C 5.5 °C 1012.5 hPa Sur 8.7 km/h 16.7 km/h 45% 0.0 mm
15:34 17.6 °C 5.5 °C 1012.5 hPa SSE 9.5 km/h 16.7 km/h 45% 0.0 mm
15:39 17.7 °C 5.6 °C 1012.5 hPa SSE 10 km/h 16.1 km/h 45% 0.0 mm
15:44 17.7 °C 5.6 °C 1012.4 hPa SSE 9.2 km/h 19.8 km/h 45% 0.0 mm
15:49 17.7 °C 5.5 °C 1012.4 hPa Sur 8.7 km/h 20.9 km/h 44.8% 0.0 mm
15:54 17.7 °C 5.3 °C 1012.5 hPa SSE 10.1 km/h 16.7 km/h 44.2% 0.0 mm
15:59 17.7 °C 5.3 °C 1012.5 hPa Sur 11.1 km/h 16.1 km/h 44% 0.0 mm
16:04 17.7 °C 5.2 °C 1012.5 hPa SSE 11.1 km/h 16.7 km/h 43.8% 0.0 mm
16:09 17.8 °C 5.2 °C 1012.5 hPa Sur 11.1 km/h 16.7 km/h 43.4% 0.0 mm
16:14 17.8 °C 5.1 °C 1012.5 hPa SSE 10.4 km/h 16.1 km/h 43% 0.0 mm
16:19 17.8 °C 5.2 °C 1012.5 hPa SSO 10 km/h 14.5 km/h 43.5% 0.0 mm
16:24 17.9 °C 5.1 °C 1012.5 hPa Sur 9 km/h 14.8 km/h 43% 0.0 mm
16:29 17.9 °C 5.1 °C 1012.4 hPa Sur 8.4 km/h 14.8 km/h 43% 0.0 mm
16:34 17.9 °C 5.1 °C 1012.4 hPa Sur 8.4 km/h 14.5 km/h 43% 0.0 mm
16:39 17.9 °C 5.1 °C 1012.4 hPa SSO 8.4 km/h 14.8 km/h 42.9% 0.0 mm
16:44 17.9 °C 5.1 °C 1012.3 hPa Sur 7.9 km/h 14.5 km/h 43% 0.0 mm
16:49 17.9 °C 5 °C 1012.3 hPa SSE 7.6 km/h 11.3 km/h 42.6% 0.0 mm
16:54 17.9 °C 5.1 °C 1012.3 hPa SSE 7.2 km/h 11.3 km/h 43% 0.0 mm
16:59 17.9 °C 5.1 °C 1012.1 hPa Sur 6.9 km/h 9.7 km/h 43% 0.0 mm
17:04 17.8 °C 5.2 °C 1012.1 hPa Sur 5.7 km/h 8 km/h 43.4% 0.0 mm
17:09 17.7 °C 5.3 °C 1012.1 hPa Sur 5 km/h 8.4 km/h 44% 0.0 mm
17:14 17.7 °C 5.2 °C 1012.1 hPa Sur 4.8 km/h 8 km/h 44% 0.0 mm
17:19 17.6 °C 5.4 °C 1012.1 hPa Sur 4.7 km/h 8.4 km/h 44.7% 0.0 mm
17:24 17.5 °C 5.5 °C 1012.2 hPa SSO 4.8 km/h 9.3 km/h 45.3% 0.0 mm
17:29 17.3 °C 6 °C 1012.2 hPa Sur 5 km/h 10 km/h 47.4% 0.0 mm
17:34 17.2 °C 6.6 °C 1012.2 hPa Sur 5.5 km/h 9.7 km/h 49.7% 0.0 mm
17:39 17.1 °C 6.8 °C 1012.2 hPa SSE 5.8 km/h 9.7 km/h 50.7% 0.0 mm
17:44 16.9 °C 6.5 °C 1012.2 hPa SSE 5.3 km/h 9.7 km/h 50.5% 0.0 mm
17:49 16.7 °C 6.6 °C 1012.2 hPa ESE 5 km/h 8 km/h 51.2% 0.0 mm
17:54 16.5 °C 6.9 °C 1012.2 hPa SE 4.8 km/h 8.4 km/h 53.1% 0.0 mm
17:59 16.2 °C 7.2 °C 1012.2 hPa SE 4.7 km/h 8.4 km/h 55.1% 0.0 mm
18:03 16 °C 7.3 °C 1012.2 hPa SE 4.8 km/h 8.4 km/h 56.2% 0.0 mm
19:24 14.2 °C 7.9 °C 1012.3 hPa Sur 3.9 km/h 7.4 km/h 66% 0.0 mm
19:29 14.2 °C 8 °C 1012.3 hPa Sur 3.9 km/h 9.5 km/h 66.2% 0.0 mm
19:34 14.1 °C 8.3 °C 1012.3 hPa SSO 3.9 km/h 9.7 km/h 68% 0.0 mm
19:39 14 °C 8.5 °C 1012.3 hPa SSO 3.9 km/h 10 km/h 69.6% 0.0 mm
19:44 13.9 °C 8.6 °C 1012.3 hPa SSO 4.4 km/h 9.7 km/h 70.7% 0.0 mm
19:49 13.8 °C 8.8 °C 1012.3 hPa Sur 5 km/h 8 km/h 71.8% 0.0 mm
19:54 13.7 °C 8.9 °C 1012.3 hPa Sur 4.8 km/h 8 km/h 72.7% 0.0 mm
19:59 13.6 °C 8.9 °C 1012.2 hPa SSO 4.7 km/h 10 km/h 73.3% 0.0 mm
20:04 13.5 °C 8.9 °C 1012.2 hPa SSO 5.6 km/h 13 km/h 74% 0.0 mm
20:09 13.4 °C 9 °C 1012.3 hPa SSO 6.5 km/h 13 km/h 74.6% 0.0 mm
20:14 13.4 °C 9.1 °C 1012.3 hPa SSO 6.7 km/h 12.9 km/h 75% 0.0 mm
20:19 13.3 °C 9.1 °C 1012.3 hPa Sur 6.9 km/h 11.3 km/h 75.6% 0.0 mm
20:24 13.3 °C 9.2 °C 1012.3 hPa SSO 6.4 km/h 10 km/h 76% 0.0 mm
20:29 13.3 °C 9.2 °C 1012.2 hPa SO 5.8 km/h 9.7 km/h 76% 0.0 mm
20:34 13.2 °C 9.2 °C 1012.2 hPa OSO 5.4 km/h 9.7 km/h 76.2% 0.0 mm
20:39 13.2 °C 9.2 °C 1012.2 hPa OSO 5 km/h 8 km/h 76.4% 0.0 mm
20:44 13.1 °C 9.2 °C 1012.2 hPa OSO 4.1 km/h 7.6 km/h 76.9% 0.0 mm
20:49 13 °C 9.1 °C 1012.2 hPa OSO 3.2 km/h 8 km/h 77.2% 0.0 mm
20:54 12.9 °C 9.2 °C 1012.2 hPa OSO 3.5 km/h 8 km/h 78% 0.0 mm
20:59 12.8 °C 9.1 °C 1012.2 hPa OSO 3.9 km/h 8 km/h 78.3% 0.0 mm
21:04 12.8 °C 9.2 °C 1012.2 hPa OSO 4.3 km/h 8 km/h 79% 0.0 mm
21:09 12.7 °C 9.3 °C 1012.3 hPa SO 4.7 km/h 9.3 km/h 79.5% 0.0 mm
21:14 12.7 °C 9.3 °C 1012.3 hPa SSO 4.8 km/h 9.7 km/h 80% 0.0 mm
21:19 12.8 °C 9.4 °C 1012.3 hPa SSO 5 km/h 9.7 km/h 80% 0.0 mm
21:24 12.8 °C 9.4 °C 1012.3 hPa SSO 5.4 km/h 11.9 km/h 80% 0.0 mm
21:29 12.8 °C 9.4 °C 1012.1 hPa SSO 5.8 km/h 11.3 km/h 80% 0.0 mm
21:34 12.7 °C 9.3 °C 1012.1 hPa SSO 6.3 km/h 13 km/h 80% 0.0 mm
21:39 12.7 °C 9.3 °C 1012.1 hPa SSO 6.9 km/h 13 km/h 80% 0.0 mm
21:44 12.7 °C 9.3 °C 1012.0 hPa SSE 6.9 km/h 9.7 km/h 80% 0.0 mm
21:49 12.7 °C 9.3 °C 1012.0 hPa Sur 6.9 km/h 8 km/h 80% 0.0 mm
21:54 12.6 °C 9.2 °C 1012.0 hPa Sur 6 km/h 9.3 km/h 80% 0.0 mm
21:59 12.6 °C 9.2 °C 1012.0 hPa Sur 5 km/h 9.7 km/h 80% 0.0 mm
22:04 12.5 °C 9.2 °C 1012.0 hPa SE 4.8 km/h 8 km/h 80% 0.0 mm
22:09 12.4 °C 8.9 °C 1012.0 hPa SE 4.7 km/h 8 km/h 79.2% 0.0 mm
22:14 12.3 °C 8.7 °C 1011.9 hPa SE 4.8 km/h 9.5 km/h 78.8% 0.0 mm
22:19 12.1 °C 8.4 °C 1011.9 hPa SE 5 km/h 10 km/h 78.3% 0.0 mm
22:24 11.9 °C 8.4 °C 1011.9 hPa SE 5.7 km/h 10 km/h 79% 0.0 mm
22:29 11.8 °C 8.3 °C 1011.8 hPa SSE 6.5 km/h 9.7 km/h 79% 0.0 mm
22:34 11.8 °C 8.3 °C 1011.8 hPa SE 6.5 km/h 9.7 km/h 79% 0.0 mm
22:39 11.8 °C 8.3 °C 1011.8 hPa SE 6.5 km/h 9.7 km/h 79% 0.0 mm
22:44 11.8 °C 8.3 °C 1011.7 hPa SSE 5.7 km/h 9.3 km/h 79.4% 0.0 mm
22:49 11.8 °C 8.4 °C 1011.7 hPa SE 5 km/h 9.7 km/h 80% 0.0 mm
22:54 11.8 °C 8.4 °C 1011.7 hPa SSE 5 km/h 10 km/h 80% 0.0 mm
22:59 11.7 °C 8.4 °C 1011.7 hPa SSE 5 km/h 9.7 km/h 80% 0.0 mm
23:04 11.7 °C 8.4 °C 1011.7 hPa SSE 5 km/h 9.7 km/h 80% 0.0 mm
23:09 11.7 °C 8.4 °C 1011.7 hPa SE 5 km/h 8.4 km/h 80% 0.0 mm
23:14 11.6 °C 8.3 °C 1011.6 hPa SE 4.8 km/h 8.4 km/h 80% 0.0 mm
23:19 11.6 °C 8.2 °C 1011.6 hPa SE 4.7 km/h 8 km/h 80.1% 0.0 mm
23:24 11.4 °C 8.3 °C 1011.6 hPa SSE 4.8 km/h 8 km/h 81% 0.0 mm
23:29 11.4 °C 8.3 °C 1011.5 hPa SSE 5 km/h 8 km/h 81% 0.0 mm
23:34 11.4 °C 8.3 °C 1011.5 hPa SSE 4.8 km/h 8.4 km/h 81.2% 0.0 mm
23:39 11.3 °C 8.3 °C 1011.5 hPa SE 4.6 km/h 8 km/h 82% 0.0 mm
23:44 11.3 °C 8.3 °C 1011.4 hPa SE 4.2 km/h 8 km/h 82% 0.0 mm
23:49 11.2 °C 8.2 °C 1011.4 hPa SSE 3.9 km/h 8 km/h 82% 0.0 mm
23:54 11.2 °C 8.2 °C 1011.4 hPa SSO 3.9 km/h 8 km/h 82% 0.0 mm
23:59 11.1 °C 8.2 °C 1011.3 hPa SSO 3.9 km/h 4.8 km/h 82% 0.0 mm
Murcia-Puente Tocinos, España
Compliments of Weather Underground - 2.75 mb

La estación de MeteoMurcia.com, publica sus datos en los siguientes proyectos:

Weather Underground PWS IMURCIAP2 Meteoclimatic www.awekas.at

W3Counter
Web Analytics